createdAt,value
2023-05-02T00:00:35.619Z,11.48
2023-05-02T00:01:35.611Z,11.78
2023-05-02T00:02:35.760Z,11.41
2023-05-02T00:03:35.776Z,11.47
2023-05-02T00:04:35.718Z,11.47
2023-05-02T00:05:35.674Z,11.57
2023-05-02T00:06:35.696Z,11.37
2023-05-02T00:07:35.692Z,11.54
2023-05-02T00:08:35.722Z,11.25
2023-05-02T00:09:35.745Z,11.61
2023-05-02T00:10:35.756Z,11.55
2023-05-02T00:11:35.788Z,11.28
2023-05-02T00:12:35.781Z,11.39
2023-05-02T00:13:35.834Z,11.34
2023-05-02T00:14:35.821Z,11.20
2023-05-02T00:15:35.869Z,11.26
2023-05-02T00:16:35.968Z,11.21
2023-05-02T00:17:35.961Z,11.54
2023-05-02T00:18:35.991Z,11.31
2023-05-02T00:19:36.022Z,11.36
2023-05-02T00:20:36.099Z,11.04
2023-05-02T00:21:36.119Z,10.98
2023-05-02T00:22:36.158Z,11.15
2023-05-02T00:23:36.195Z,11.19
2023-05-02T00:24:36.244Z,11.10
2023-05-02T00:25:36.316Z,11.08
2023-05-02T00:26:36.342Z,10.99
2023-05-02T00:27:36.378Z,10.82
2023-05-02T00:28:36.419Z,10.99
2023-05-02T00:29:36.456Z,10.84
2023-05-02T00:30:36.528Z,10.77
2023-05-02T00:31:36.597Z,10.86
2023-05-02T00:32:36.639Z,10.90
2023-05-02T00:33:36.637Z,10.72
2023-05-02T00:34:36.723Z,10.89
2023-05-02T00:35:36.726Z,10.74
2023-05-02T00:36:36.775Z,10.59
2023-05-02T00:37:36.820Z,10.97
2023-05-02T00:38:36.875Z,10.52
2023-05-02T00:39:36.913Z,10.63
2023-05-02T00:40:36.976Z,10.54
2023-05-02T00:41:37.030Z,10.55
2023-05-02T00:42:37.049Z,10.65
2023-05-02T00:43:37.067Z,10.67
2023-05-02T00:44:37.084Z,10.68
2023-05-02T00:45:37.101Z,10.65
2023-05-02T00:46:37.187Z,10.75
2023-05-02T00:47:37.155Z,10.59
2023-05-02T00:48:37.139Z,10.62
2023-05-02T00:49:37.136Z,10.75
2023-05-02T00:50:37.164Z,10.46
2023-05-02T00:51:37.168Z,10.44
2023-05-02T00:52:37.171Z,10.37
2023-05-02T00:53:37.175Z,10.56
2023-05-02T00:54:37.206Z,10.39
2023-05-02T00:55:37.207Z,10.26
2023-05-02T00:56:37.219Z,10.72
2023-05-02T00:57:37.219Z,10.21
2023-05-02T00:58:37.247Z,10.35
2023-05-02T00:59:37.255Z,10.58
2023-05-02T01:00:37.266Z,10.28
2023-05-02T01:01:37.311Z,10.41
2023-05-02T01:02:37.429Z,10.35
2023-05-02T01:03:37.378Z,10.32
2023-05-02T01:04:37.325Z,10.33
2023-05-02T01:05:37.334Z,10.34
2023-05-02T01:06:37.402Z,10.43
2023-05-02T01:07:37.398Z,10.49
2023-05-02T01:08:37.370Z,10.46
2023-05-02T01:09:37.398Z,10.33
2023-05-02T01:10:37.383Z,10.36
2023-05-02T01:11:37.408Z,10.46
2023-05-02T01:12:37.401Z,10.38
2023-05-02T01:13:37.417Z,10.49
2023-05-02T01:14:37.439Z,10.41
2023-05-02T01:15:37.472Z,10.31
2023-05-02T01:16:37.696Z,10.03
2023-05-02T01:17:37.554Z,10.16
2023-05-02T01:18:37.485Z,10.25
2023-05-02T01:19:37.523Z,10.04
2023-05-02T01:20:37.526Z,10.15
2023-05-02T01:21:37.559Z,10.31
2023-05-02T01:22:37.565Z,10.08
2023-05-02T01:23:37.620Z,9.98
2023-05-02T01:24:37.593Z,10.01
2023-05-02T01:25:37.653Z,9.86
2023-05-02T01:26:37.665Z,10.01
2023-05-02T01:27:37.691Z,9.78
2023-05-02T01:28:37.704Z,9.85
2023-05-02T01:29:37.711Z,9.77
2023-05-02T01:30:37.736Z,10.05
2023-05-02T01:31:37.845Z,9.77
2023-05-02T01:32:37.892Z,9.67
2023-05-02T01:33:37.906Z,9.87
2023-05-02T01:34:37.946Z,9.69
2023-05-02T01:35:37.981Z,9.60
2023-05-02T01:36:38.040Z,9.70
2023-05-02T01:37:38.080Z,9.85
2023-05-02T01:38:38.127Z,9.76
2023-05-02T01:39:38.165Z,9.70
2023-05-02T01:40:38.211Z,9.84
2023-05-02T01:41:38.273Z,9.74
2023-05-02T01:42:38.305Z,9.71
2023-05-02T01:43:38.348Z,9.58
2023-05-02T01:44:38.382Z,9.65
2023-05-02T01:45:38.423Z,9.57
2023-05-02T01:46:38.514Z,9.56
2023-05-02T01:47:38.503Z,9.82
2023-05-02T01:48:38.581Z,9.76
2023-05-02T01:49:38.575Z,9.73
2023-05-02T01:50:38.596Z,9.57
2023-05-02T01:51:38.592Z,9.48
2023-05-02T01:52:38.603Z,9.72
2023-05-02T01:53:38.622Z,9.51
2023-05-02T01:54:38.639Z,9.55
2023-05-02T01:55:38.652Z,9.72
2023-05-02T01:56:38.681Z,9.47
2023-05-02T01:57:38.701Z,9.53
2023-05-02T01:58:38.692Z,9.71
2023-05-02T01:59:38.722Z,9.72
2023-05-02T02:00:38.953Z,9.62
2023-05-02T02:01:38.841Z,9.69
2023-05-02T02:02:38.760Z,9.53
2023-05-02T02:03:38.854Z,9.45
2023-05-02T02:04:38.837Z,9.59
2023-05-02T02:05:38.802Z,9.61
2023-05-02T02:06:38.873Z,9.52
2023-05-02T02:07:38.830Z,9.52
2023-05-02T02:08:38.835Z,9.23
2023-05-02T02:09:38.874Z,9.44
2023-05-02T02:10:38.871Z,9.44
2023-05-02T02:11:38.895Z,9.30
2023-05-02T02:12:38.925Z,9.54
2023-05-02T02:13:38.917Z,9.29
2023-05-02T02:14:38.954Z,9.24
2023-05-02T02:15:38.963Z,9.27
2023-05-02T02:16:39.019Z,9.23
2023-05-02T02:17:38.995Z,9.22
2023-05-02T02:18:39.043Z,9.18
2023-05-02T02:19:39.040Z,9.12
2023-05-02T02:20:39.059Z,9.18
2023-05-02T02:21:39.073Z,9.18
2023-05-02T02:22:39.070Z,9.21
2023-05-02T02:23:39.092Z,9.24
2023-05-02T02:24:39.096Z,9.25
2023-05-02T02:25:39.129Z,8.98
2023-05-02T02:26:39.145Z,9.23
2023-05-02T02:27:39.150Z,9.06
2023-05-02T02:28:39.156Z,9.02
2023-05-02T02:29:39.179Z,8.96
2023-05-02T02:30:39.259Z,8.97
2023-05-02T02:31:39.222Z,9.13
2023-05-02T02:32:39.251Z,9.14
2023-05-02T02:33:39.238Z,9.04
2023-05-02T02:34:39.253Z,9.01
2023-05-02T02:35:39.285Z,8.93
2023-05-02T02:36:39.278Z,8.93
2023-05-02T02:37:39.300Z,9.07
2023-05-02T02:38:39.304Z,8.89
2023-05-02T02:39:39.325Z,9.10
2023-05-02T02:40:39.341Z,8.99
2023-05-02T02:41:39.402Z,8.90
2023-05-02T02:42:39.440Z,8.75
2023-05-02T02:43:39.478Z,8.53
2023-05-02T02:44:39.529Z,8.88
2023-05-02T02:45:39.581Z,8.83
2023-05-02T02:46:39.693Z,8.56
2023-05-02T02:47:39.699Z,8.58
2023-05-02T02:48:39.654Z,8.59
2023-05-02T02:49:39.685Z,8.61
2023-05-02T02:50:39.694Z,8.69
2023-05-02T02:51:39.737Z,8.81
2023-05-02T02:52:39.720Z,8.72
2023-05-02T02:53:39.734Z,8.83
2023-05-02T02:54:39.771Z,8.76
2023-05-02T02:55:39.819Z,8.61
2023-05-02T02:56:39.797Z,8.64
2023-05-02T02:57:39.810Z,8.53
2023-05-02T02:58:39.808Z,8.54
2023-05-02T02:59:39.827Z,8.59
2023-05-02T03:00:39.836Z,8.56
2023-05-02T03:01:39.971Z,7.93
2023-05-02T03:02:39.882Z,7.41
2023-05-02T03:03:39.928Z,6.84
2023-05-02T03:04:39.878Z,6.43
2023-05-02T03:05:39.913Z,5.90
2023-05-02T03:06:39.943Z,4.91
2023-05-02T03:07:39.925Z,4.17
2023-05-02T03:08:39.948Z,3.49
2023-05-02T03:09:39.957Z,3.01
2023-05-02T03:10:39.977Z,2.60
2023-05-02T03:11:39.993Z,2.45
2023-05-02T03:12:40.119Z,2.16
2023-05-02T03:13:40.000Z,1.93
2023-05-02T03:14:40.033Z,1.64
2023-05-02T03:15:40.044Z,1.44
2023-05-02T03:16:40.133Z,1.30
2023-05-02T03:17:40.108Z,1.17
2023-05-02T03:18:40.089Z,1.09
2023-05-02T03:19:40.117Z,0.98
2023-05-02T03:20:40.152Z,0.91
2023-05-02T03:21:40.151Z,0.84
2023-05-02T03:22:40.212Z,0.80
2023-05-02T03:23:40.309Z,0.74
2023-05-02T03:24:40.395Z,0.72
2023-05-02T03:25:40.491Z,0.68
2023-05-02T03:26:40.568Z,0.62
2023-05-02T03:27:40.645Z,0.57
2023-05-02T03:28:40.747Z,0.53
2023-05-02T03:29:40.808Z,0.50
2023-05-02T03:30:40.930Z,0.51
2023-05-02T03:31:41.014Z,0.50
2023-05-02T03:32:41.060Z,0.51
2023-05-02T03:33:41.131Z,0.50
2023-05-02T03:34:41.201Z,0.50
2023-05-02T03:35:41.299Z,0.49
2023-05-02T03:36:41.398Z,0.51
2023-05-02T03:37:41.466Z,0.51
2023-05-02T03:38:41.558Z,0.51
2023-05-02T03:39:41.644Z,0.51
2023-05-02T03:40:41.722Z,0.50
2023-05-02T03:41:41.820Z,0.51
2023-05-02T03:42:41.903Z,0.50
2023-05-02T03:43:41.998Z,0.50
2023-05-02T03:44:42.070Z,0.51
2023-05-02T03:45:42.167Z,0.51
2023-05-02T03:46:42.289Z,0.50
2023-05-02T03:47:42.367Z,0.50
2023-05-02T03:48:42.420Z,0.50
2023-05-02T03:49:42.507Z,0.50
2023-05-02T03:50:42.735Z,0.50
2023-05-02T03:51:42.675Z,0.50
2023-05-02T03:52:42.873Z,0.50
2023-05-02T03:53:42.819Z,0.50
2023-05-02T03:54:42.889Z,0.50
2023-05-02T03:55:42.942Z,0.50
2023-05-02T03:56:43.008Z,0.50
2023-05-02T03:57:43.042Z,0.52
2023-05-02T03:58:43.071Z,0.50
2023-05-02T03:59:43.129Z,0.50
2023-05-02T04:00:43.154Z,0.50
2023-05-02T04:01:43.240Z,0.52
2023-05-02T04:02:43.433Z,0.50
2023-05-02T04:03:43.374Z,0.51
2023-05-02T04:04:43.631Z,0.50
2023-05-02T04:05:43.329Z,0.50
2023-05-02T04:06:43.483Z,0.52
2023-05-02T04:07:43.369Z,0.51
2023-05-02T04:08:43.426Z,0.51
2023-05-02T04:09:43.440Z,0.51
2023-05-02T04:10:43.525Z,0.51
2023-05-02T04:11:43.578Z,0.52
2023-05-02T04:12:43.628Z,0.50
2023-05-02T04:13:43.665Z,0.51
2023-05-02T04:14:43.679Z,0.51
2023-05-02T04:15:43.710Z,0.49
2023-05-02T04:16:43.771Z,0.47
2023-05-02T04:17:43.781Z,0.47
2023-05-02T04:18:43.763Z,0.46
2023-05-02T04:19:43.804Z,0.50
2023-05-02T04:20:43.827Z,0.50
2023-05-02T04:21:43.855Z,0.51
2023-05-02T04:22:44.044Z,0.50
2023-05-02T04:23:43.893Z,0.50
2023-05-02T04:24:43.931Z,0.51
2023-05-02T04:25:43.942Z,0.52
2023-05-02T04:26:43.969Z,0.52
2023-05-02T04:27:43.996Z,0.51
2023-05-02T04:28:44.016Z,0.53
2023-05-02T04:29:44.050Z,0.52
2023-05-02T04:30:44.100Z,0.52
2023-05-02T04:31:44.091Z,0.55
2023-05-02T04:32:44.179Z,0.53
2023-05-02T04:33:44.165Z,0.52
2023-05-02T04:34:44.180Z,0.52
2023-05-02T04:35:44.212Z,0.56
2023-05-02T04:36:44.249Z,0.53
2023-05-02T04:37:44.256Z,0.54
2023-05-02T04:38:44.286Z,0.53
2023-05-02T04:39:44.304Z,0.52
2023-05-02T04:40:44.324Z,0.52
2023-05-02T04:41:44.366Z,0.53
2023-05-02T04:42:44.378Z,0.52
2023-05-02T04:43:44.470Z,0.51
2023-05-02T04:44:44.518Z,0.52
2023-05-02T04:45:44.557Z,0.51
2023-05-02T04:46:44.683Z,0.53
2023-05-02T04:47:44.678Z,0.53
2023-05-02T04:48:44.690Z,0.53
2023-05-02T04:49:44.747Z,0.50
2023-05-02T04:50:44.782Z,0.53
2023-05-02T04:51:44.816Z,0.53
2023-05-02T04:52:44.821Z,0.50
2023-05-02T04:53:44.852Z,0.50
2023-05-02T04:54:44.884Z,0.49
2023-05-02T04:55:44.903Z,0.51
2023-05-02T04:56:44.924Z,0.51
2023-05-02T04:57:44.947Z,0.51
2023-05-02T04:58:44.949Z,0.52
2023-05-02T04:59:44.972Z,0.50
2023-05-02T05:00:44.998Z,0.51
2023-05-02T05:01:45.043Z,0.51
2023-05-02T05:02:45.161Z,0.53
2023-05-02T05:03:45.237Z,0.53
2023-05-02T05:04:45.084Z,0.52
2023-05-02T05:05:45.113Z,0.53
2023-05-02T05:06:45.211Z,0.53
2023-05-02T05:07:45.147Z,0.52
2023-05-02T05:08:45.165Z,0.53
2023-05-02T05:09:45.192Z,0.47
2023-05-02T05:10:45.217Z,0.45
2023-05-02T05:11:45.239Z,0.52
2023-05-02T05:12:45.274Z,0.62
2023-05-02T05:13:45.305Z,0.68
2023-05-02T05:14:45.327Z,0.74
2023-05-02T05:15:45.423Z,0.78
2023-05-02T05:16:45.374Z,0.88
2023-05-02T05:17:45.426Z,0.94
2023-05-02T05:18:45.391Z,1.01
2023-05-02T05:19:45.420Z,1.10
2023-05-02T05:20:45.442Z,1.17
2023-05-02T05:21:45.469Z,1.26
2023-05-02T05:22:45.526Z,1.34
2023-05-02T05:23:45.579Z,1.42
2023-05-02T05:24:45.623Z,1.59
2023-05-02T05:25:45.985Z,1.54
2023-05-02T05:26:45.743Z,1.73
2023-05-02T05:27:45.777Z,1.85
2023-05-02T05:28:45.824Z,1.99
2023-05-02T05:29:45.860Z,2.11
2023-05-02T05:30:45.894Z,2.26
2023-05-02T05:31:45.999Z,2.26
2023-05-02T05:33:46.039Z,2.42
2023-05-02T05:34:45.973Z,2.83
2023-05-02T05:35:46.008Z,3.67
2023-05-02T05:36:46.011Z,4.30
2023-05-02T05:37:46.131Z,4.72
2023-05-02T05:38:46.134Z,5.63
2023-05-02T05:39:46.031Z,6.18
2023-05-02T05:40:46.066Z,6.29
2023-05-02T05:41:46.080Z,7.29
2023-05-02T05:42:46.217Z,8.25
2023-05-02T05:43:46.093Z,8.83
2023-05-02T05:44:46.146Z,8.39
2023-05-02T05:45:46.142Z,8.92
2023-05-02T05:46:46.226Z,9.42
2023-05-02T05:47:46.205Z,9.43
2023-05-02T05:48:46.228Z,9.49
2023-05-02T05:49:46.252Z,9.52
2023-05-02T05:50:46.261Z,9.67
2023-05-02T05:51:46.282Z,9.51
2023-05-02T05:52:46.336Z,3.26
2023-05-02T05:53:46.309Z,1.62
2023-05-02T05:54:46.316Z,0.68
2023-05-02T05:55:46.386Z,0.50
2023-05-02T05:56:46.351Z,0.48
2023-05-02T05:57:46.371Z,0.42
2023-05-02T05:58:46.388Z,0.43
2023-05-02T05:59:46.413Z,0.45
2023-05-02T06:00:46.461Z,0.47
2023-05-02T06:01:46.507Z,0.48
2023-05-02T06:02:46.705Z,0.48
2023-05-02T06:03:46.804Z,0.50
2023-05-02T06:04:46.767Z,0.50
2023-05-02T06:05:46.750Z,0.50
2023-05-02T06:06:46.834Z,0.42
2023-05-02T06:07:46.856Z,0.41
2023-05-02T06:08:46.845Z,0.41
2023-05-02T06:09:46.872Z,0.37
2023-05-02T06:10:46.908Z,0.38
2023-05-02T06:11:46.932Z,0.57
2023-05-02T06:12:47.282Z,0.72
2023-05-02T06:13:46.952Z,1.04
2023-05-02T06:14:46.973Z,1.46
2023-05-02T06:15:47.024Z,1.83
2023-05-02T06:16:47.037Z,2.68
2023-05-02T06:17:47.082Z,3.42
2023-05-02T06:18:47.075Z,4.12
2023-05-02T06:19:47.101Z,4.89
2023-05-02T06:20:47.110Z,4.93
2023-05-02T06:21:47.154Z,5.26
2023-05-02T06:22:47.169Z,6.17
2023-05-02T06:23:47.174Z,8.05
2023-05-02T06:24:47.181Z,13.00
2023-05-02T06:25:47.227Z,15.27
2023-05-02T06:26:47.334Z,17.54
2023-05-02T06:27:47.253Z,20.70
2023-05-02T06:28:47.256Z,23.99
2023-05-02T06:29:47.277Z,27.79
2023-05-02T06:30:47.284Z,30.37
